Time;durP1;ratioP1;P1;durP2;ratioP2;P2;SDS_P1;SDS_P2;PMS_P1;PMS_P2;Temp;Humidity;BMP_temperature;BMP_pressure;BME280_temperature;BME280_humidity;BME280_pressure;Samples;Min_cycle;Max_cycle;Signal;HPM_P1;HPM_P2
2021/07/15 00:01:25;;;;;;;1.42;0.60;;;;;;;;;;6302241;22;20339;-43
2021/07/15 00:03:50;;;;;;;1.13;0.60;;;;;;;;;;6301434;22;20481;-42
2021/07/15 00:06:15;;;;;;;6.25;1.13;;;;;;;;;;6301883;22;20037;-46
2021/07/15 00:08:44;;;;;;;1.45;1.13;;;;;;;;;;6302072;22;20083;-42
2021/07/15 00:11:10;;;;;;;1.33;0.82;;;;;;;;;;6302068;22;20007;-42
2021/07/15 00:13:36;;;;;;;4.95;0.73;;;;;;;;;;6301506;22;20031;-41
2021/07/15 00:16:02;;;;;;;4.30;1.38;;;;;;;;;;6301907;22;20371;-42
2021/07/15 00:18:29;;;;;;;6.65;1.63;;;;;;;;;;6302543;22;19996;-43
2021/07/15 00:20:56;;;;;;;2.03;1.00;;;;;;;;;;6303958;22;20003;-46
2021/07/15 00:23:21;;;;;;;3.38;0.80;;;;;;;;;;6303976;22;20026;-42
2021/07/15 00:25:47;;;;;;;0.88;0.40;;;;;;;;;;6303533;22;20052;-45
2021/07/15 00:28:12;;;;;;;2.38;1.20;;;;;;;;;;6303724;22;20003;-45
2021/07/15 00:30:38;;;;;;;1.40;0.82;;;;;;;;;;6303756;22;20083;-45
2021/07/15 00:33:04;;;;;;;1.85;0.95;;;;;;;;;;6303571;22;20013;-42
2021/07/15 00:35:30;;;;;;;2.63;1.25;;;;;;;;;;6303980;22;20056;-43
2021/07/15 00:37:55;;;;;;;4.97;1.20;;;;;;;;;;6303738;22;20448;-42
2021/07/15 00:40:20;;;;;;;5.00;0.70;;;;;;;;;;6303708;22;20121;-43
2021/07/15 00:42:46;;;;;;;3.45;1.52;;;;;;;;;;6303459;22;20007;-43
2021/07/15 00:45:13;;;;;;;4.07;1.02;;;;;;;;;;6303615;22;20068;-42
2021/07/15 00:47:38;;;;;;;1.10;0.63;;;;;;;;;;6303897;22;20010;-43
2021/07/15 00:50:05;;;;;;;1.33;0.82;;;;;;;;;;6303552;22;19999;-42
2021/07/15 00:52:31;;;;;;;5.65;0.82;;;;;;;;;;6303640;22;20044;-44
2021/07/15 00:54:57;;;;;;;1.02;0.63;;;;;;;;;;6303835;22;19995;-43
2021/07/15 00:57:22;;;;;;;3.85;1.40;;;;;;;;;;6303594;22;20336;-45
2021/07/15 00:59:50;;;;;;;2.33;0.90;;;;;;;;;;6303383;22;20478;-42
2021/07/15 01:02:15;;;;;;;6.15;1.35;;;;;;;;;;6303489;22;20076;-42
2021/07/15 01:04:40;;;;;;;1.92;0.65;;;;;;;;;;6303446;22;19995;-42
2021/07/15 01:07:06;;;;;;;2.40;1.10;;;;;;;;;;6303490;22;20419;-44
2021/07/15 01:09:31;;;;;;;3.53;1.15;;;;;;;;;;6303047;22;19996;-41
2021/07/15 01:12:03;;;;;;;4.70;0.57;;;;;;;;;;6303461;22;20049;-42
2021/07/15 01:14:32;;;;;;;2.78;0.63;;;;;;;;;;6302698;22;20062;-43
2021/07/15 01:17:04;;;;;;;6.20;1.02;;;;;;;;;;6303100;22;19995;-47
2021/07/15 01:19:54;;;;;;;2.78;1.23;;;;;;;;;;6303124;22;20041;-43
2021/07/15 01:22:25;;;;;;;1.83;0.80;;;;;;;;;;6303842;22;20003;-42
2021/07/15 01:24:50;;;;;;;;;;;;;;;;;;6303720;22;20078;-44
2021/07/15 01:27:24;;;;;;;1.55;0.98;;;;;;;;;;6303014;22;19995;-43
2021/07/15 01:30:08;;;;;;;11.27;1.25;;;;;;;;;;6302168;22;19991;-45
2021/07/15 01:32:48;;;;;;;3.28;1.00;;;;;;;;;;6303149;22;20391;-44
2021/07/15 01:35:15;;;;;;;1.65;0.63;;;;;;;;;;6303347;22;20440;-45
2021/07/15 01:37:44;;;;;;;2.92;1.05;;;;;;;;;;6303494;22;19995;-44
2021/07/15 01:40:10;;;;;;;0.60;0.60;;;;;;;;;;6302936;22;20003;-44
2021/07/15 01:42:38;;;;;;;3.10;1.02;;;;;;;;;;6302168;22;19997;-42
2021/07/15 01:45:03;;;;;;;7.57;1.45;;;;;;;;;;6299680;22;20098;-42
2021/07/15 01:47:28;;;;;;;1.20;0.85;;;;;;;;;;6302985;22;20003;-47
2021/07/15 01:49:56;;;;;;;3.20;1.25;;;;;;;;;;6302879;22;20432;-43
2021/07/15 01:52:22;;;;;;;3.83;1.58;;;;;;;;;;6303539;22;20004;-44
2021/07/15 01:54:50;;;;;;;2.92;1.25;;;;;;;;;;6302574;22;20320;-42
2021/07/15 01:57:17;;;;;;;2.35;1.08;;;;;;;;;;6303397;22;20018;-41
2021/07/15 01:59:43;;;;;;;2.63;1.25;;;;;;;;;;6303109;22;19999;-41
2021/07/15 02:02:09;;;;;;;1.30;0.88;;;;;;;;;;6303488;22;20049;-41
2021/07/15 02:04:36;;;;;;;0.73;0.52;;;;;;;;;;6303078;22;19999;-44
2021/07/15 02:07:01;;;;;;;5.47;0.63;;;;;;;;;;6303218;22;20026;-42
2021/07/15 02:09:26;;;;;;;2.55;1.02;;;;;;;;;;6302977;22;20439;-43
2021/07/15 02:11:54;;;;;;;1.02;0.88;;;;;;;;;;6303018;22;20017;-42
2021/07/15 02:14:21;;;;;;;1.25;0.90;;;;;;;;;;6302762;22;20068;-44
2021/07/15 02:16:48;;;;;;;1.77;0.90;;;;;;;;;;6302967;22;20070;-42
2021/07/15 02:19:14;;;;;;;2.90;0.77;;;;;;;;;;6303139;22;20003;-42
2021/07/15 02:21:40;;;;;;;2.70;0.90;;;;;;;;;;6303037;22;20003;-42
2021/07/15 02:24:07;;;;;;;2.63;0.88;;;;;;;;;;6302620;22;20006;-43
2021/07/15 02:26:33;;;;;;;3.58;0.60;;;;;;;;;;6302946;22;20026;-44
2021/07/15 02:28:59;;;;;;;1.70;0.95;;;;;;;;;;6302477;22;20017;-41
2021/07/15 02:31:44;;;;;;;4.05;1.10;;;;;;;;;;6302714;22;20035;-41
2021/07/15 02:34:20;;;;;;;1.05;0.55;;;;;;;;;;6302373;22;20003;-44
2021/07/15 02:36:45;;;;;;;2.25;0.75;;;;;;;;;;6302546;22;20041;-43
2021/07/15 02:39:11;;;;;;;1.05;0.70;;;;;;;;;;6302320;22;20422;-42
2021/07/15 02:41:37;;;;;;;3.00;0.90;;;;;;;;;;6302357;22;19995;-45
2021/07/15 02:44:02;;;;;;;4.43;0.82;;;;;;;;;;6302345;22;20006;-43
2021/07/15 02:46:28;;;;;;;1.08;0.63;;;;;;;;;;6302108;22;19995;-43
2021/07/15 02:48:54;;;;;;;1.30;0.57;;;;;;;;;;6302109;22;20007;-42
2021/07/15 02:51:19;;;;;;;0.57;0.50;;;;;;;;;;6302149;22;20009;-42
2021/07/15 02:53:45;;;;;;;2.45;1.23;;;;;;;;;;6302599;22;20067;-41
2021/07/15 02:56:22;;;;;;;1.20;0.65;;;;;;;;;;6302666;22;20408;-41
2021/07/15 02:59:00;;;;;;;0.73;0.45;;;;;;;;;;6302448;22;20031;-43
2021/07/15 03:01:28;;;;;;;1.42;0.80;;;;;;;;;;6302262;22;20034;-42
2021/07/15 03:03:56;;;;;;;3.05;1.63;;;;;;;;;;6302092;22;20030;-41
2021/07/15 03:06:48;;;;;;;3.80;1.15;;;;;;;;;;6302316;22;19995;-42
2021/07/15 03:09:15;;;;;;;1.35;0.88;;;;;;;;;;6297582;22;20014;-41
2021/07/15 03:11:45;;;;;;;3.35;1.48;;;;;;;;;;6302404;22;20313;-41
2021/07/15 03:14:12;;;;;;;0.98;0.50;;;;;;;;;;6302083;22;20007;-42
2021/07/15 03:16:39;;;;;;;1.83;1.00;;;;;;;;;;6302098;22;19999;-42
2021/07/15 03:19:05;;;;;;;0.63;0.45;;;;;;;;;;6302857;22;20041;-41
2021/07/15 03:21:32;;;;;;;1.15;0.68;;;;;;;;;;6302382;22;20013;-43
2021/07/15 03:23:58;;;;;;;1.13;1.00;;;;;;;;;;6301978;22;20074;-41
2021/07/15 03:26:24;;;;;;;1.10;0.60;;;;;;;;;;6302280;22;20031;-43
2021/07/15 03:28:51;;;;;;;3.47;0.80;;;;;;;;;;6301936;22;20460;-42
2021/07/15 03:31:16;;;;;;;1.80;1.08;;;;;;;;;;6302406;22;20045;-42
2021/07/15 03:33:42;;;;;;;1.23;0.80;;;;;;;;;;6301695;22;19995;-42
2021/07/15 03:36:08;;;;;;;2.35;0.73;;;;;;;;;;6301948;22;19998;-41
2021/07/15 03:38:34;;;;;;;0.47;0.38;;;;;;;;;;6301773;22;20033;-43
2021/07/15 03:41:04;;;;;;;0.95;0.55;;;;;;;;;;6302015;22;20010;-41
2021/07/15 03:43:29;;;;;;;1.58;0.60;;;;;;;;;;6301840;22;20022;-42
2021/07/15 03:45:55;;;;;;;2.97;0.90;;;;;;;;;;6300204;22;20010;-41
2021/07/15 03:48:22;;;;;;;1.38;0.70;;;;;;;;;;6301709;22;20085;-41
2021/07/15 03:50:48;;;;;;;1.85;0.93;;;;;;;;;;6301900;22;20007;-43
2021/07/15 03:53:15;;;;;;;0.75;0.57;;;;;;;;;;6301903;22;20353;-41
2021/07/15 03:55:41;;;;;;;1.13;0.60;;;;;;;;;;6301734;22;19996;-40
2021/07/15 03:58:10;;;;;;;2.35;1.58;;;;;;;;;;6301901;22;20022;-41
2021/07/15 04:00:37;;;;;;;2.78;1.02;;;;;;;;;;6301422;22;19991;-41
2021/07/15 04:03:04;;;;;;;1.45;0.70;;;;;;;;;;6301673;22;19999;-41
2021/07/15 04:05:31;;;;;;;2.03;1.05;;;;;;;;;;6301503;22;20003;-42
2021/07/15 04:07:58;;;;;;;3.20;0.93;;;;;;;;;;6301691;22;20078;-43
2021/07/15 04:10:24;;;;;;;1.50;0.73;;;;;;;;;;6302233;22;20082;-41
2021/07/15 04:12:51;;;;;;;1.05;0.75;;;;;;;;;;6301880;22;20034;-40
2021/07/15 04:15:20;;;;;;;1.08;0.77;;;;;;;;;;6301430;22;20114;-42
2021/07/15 04:17:56;;;;;;;1.48;0.80;;;;;;;;;;6301573;22;19995;-41
2021/07/15 04:20:23;;;;;;;1.50;0.73;;;;;;;;;;6301639;22;20034;-42
2021/07/15 04:22:50;;;;;;;0.82;0.38;;;;;;;;;;6302063;22;20003;-41
2021/07/15 04:25:17;;;;;;;1.73;1.27;;;;;;;;;;6302139;22;20044;-42
2021/07/15 04:27:44;;;;;;;1.73;1.33;;;;;;;;;;6301178;22;20003;-40
2021/07/15 04:30:10;;;;;;;0.90;0.60;;;;;;;;;;6301839;22;20007;-41
2021/07/15 04:32:38;;;;;;;1.13;0.60;;;;;;;;;;6301843;22;19996;-40
2021/07/15 04:35:05;;;;;;;4.85;1.00;;;;;;;;;;6301920;22;20165;-40
2021/07/15 04:37:31;;;;;;;1.65;1.25;;;;;;;;;;6302021;22;20037;-40
2021/07/15 04:39:57;;;;;;;1.02;0.50;;;;;;;;;;6301424;22;19995;-40
2021/07/15 04:42:23;;;;;;;0.70;0.50;;;;;;;;;;6302098;22;20010;-41
2021/07/15 04:44:49;;;;;;;1.10;0.68;;;;;;;;;;6301653;22;19999;-40
2021/07/15 04:47:17;;;;;;;1.90;0.80;;;;;;;;;;6301021;22;20336;-40
2021/07/15 04:49:44;;;;;;;1.40;0.98;;;;;;;;;;6301239;22;20573;-41
2021/07/15 04:52:09;;;;;;;1.75;0.55;;;;;;;;;;6301399;22;19991;-40
2021/07/15 04:54:36;;;;;;;1.25;0.85;;;;;;;;;;6301335;22;19996;-41
2021/07/15 04:57:01;;;;;;;1.42;0.90;;;;;;;;;;6302016;22;19991;-42
2021/07/15 04:59:28;;;;;;;0.98;0.65;;;;;;;;;;6301712;22;20007;-41
2021/07/15 05:01:53;;;;;;;1.83;0.95;;;;;;;;;;6301323;22;19996;-40
2021/07/15 05:04:19;;;;;;;1.42;0.77;;;;;;;;;;6302593;22;19995;-41
2021/07/15 05:06:44;;;;;;;1.42;0.50;;;;;;;;;;6303030;22;20420;-40
2021/07/15 05:09:09;;;;;;;0.95;0.65;;;;;;;;;;6303693;22;20045;-40
2021/07/15 05:11:35;;;;;;;2.20;0.75;;;;;;;;;;6303490;22;19996;-40
2021/07/15 05:14:01;;;;;;;2.55;0.90;;;;;;;;;;6303149;22;20015;-41
2021/07/15 05:16:27;;;;;;;0.82;0.50;;;;;;;;;;6303263;22;19998;-41
2021/07/15 05:18:52;;;;;;;2.45;1.05;;;;;;;;;;6303483;22;20006;-40
2021/07/15 05:21:17;;;;;;;1.67;0.65;;;;;;;;;;6303651;22;20393;-41
2021/07/15 05:23:43;;;;;;;5.63;1.77;;;;;;;;;;6302994;22;20537;-40
2021/07/15 05:26:09;;;;;;;0.98;0.82;;;;;;;;;;6303240;22;20052;-41
2021/07/15 05:28:34;;;;;;;2.55;1.38;;;;;;;;;;6303119;22;20103;-42
2021/07/15 05:30:59;;;;;;;2.28;1.55;;;;;;;;;;6303150;22;20495;-41
2021/07/15 05:33:25;;;;;;;3.45;1.17;;;;;;;;;;6302766;22;20023;-40
2021/07/15 05:35:50;;;;;;;1.38;0.90;;;;;;;;;;6303498;22;19999;-42
2021/07/15 05:38:15;;;;;;;3.30;1.45;;;;;;;;;;6302981;22;20021;-45
2021/07/15 05:40:41;;;;;;;1.40;1.02;;;;;;;;;;6303228;22;19999;-43
2021/07/15 05:43:06;;;;;;;1.40;1.00;;;;;;;;;;6302746;22;19996;-49
2021/07/15 05:45:32;;;;;;;4.32;1.10;;;;;;;;;;6303010;22;20006;-48
2021/07/15 05:47:57;;;;;;;2.03;0.85;;;;;;;;;;6303368;22;20098;-41
2021/07/15 05:50:23;;;;;;;2.00;1.13;;;;;;;;;;6302980;22;20000;-46
2021/07/15 05:52:49;;;;;;;5.72;3.08;;;;;;;;;;6302847;22;20007;-45
2021/07/15 05:55:14;;;;;;;4.65;1.15;;;;;;;;;;6303381;22;20328;-47
2021/07/15 05:57:39;;;;;;;1.75;0.95;;;;;;;;;;6303371;22;19999;-45
2021/07/15 06:00:09;;;;;;;1.35;0.98;;;;;;;;;;6302890;22;20000;-46
2021/07/15 06:02:34;;;;;;;3.28;2.58;;;;;;;;;;6302636;22;20060;-44
2021/07/15 06:04:59;;;;;;;7.57;1.60;;;;;;;;;;6302750;22;20006;-47
2021/07/15 06:07:26;;;;;;;1.95;0.70;;;;;;;;;;6302672;22;19995;-47
2021/07/15 06:09:52;;;;;;;1.45;1.00;;;;;;;;;;6302583;22;20522;-45
2021/07/15 06:12:17;;;;;;;2.15;0.93;;;;;;;;;;6302895;22;19991;-48
2021/07/15 06:14:42;;;;;;;1.70;0.82;;;;;;;;;;6302489;22;20026;-47
2021/07/15 06:17:08;;;;;;;1.45;0.75;;;;;;;;;;6302119;22;20360;-46
2021/07/15 06:19:33;;;;;;;3.95;1.83;;;;;;;;;;6302633;22;20006;-45
2021/07/15 06:21:58;;;;;;;2.30;1.27;;;;;;;;;;6303037;22;19995;-43
2021/07/15 06:24:24;;;;;;;0.90;0.57;;;;;;;;;;6302795;22;20424;-44
2021/07/15 06:26:49;;;;;;;2.08;0.82;;;;;;;;;;6302070;22;20424;-44
2021/07/15 06:29:15;;;;;;;7.65;2.22;;;;;;;;;;6302488;22;19995;-47
2021/07/15 06:31:41;;;;;;;1.17;0.80;;;;;;;;;;6302107;22;20014;-46
2021/07/15 06:34:06;;;;;;;4.75;3.08;;;;;;;;;;6302671;22;20000;-43
2021/07/15 06:36:32;;;;;;;3.55;2.20;;;;;;;;;;6302641;22;20074;-45
2021/07/15 06:38:58;;;;;;;1.58;1.13;;;;;;;;;;6302631;22;20601;-43
2021/07/15 06:41:24;;;;;;;3.45;2.08;;;;;;;;;;6302136;22;20446;-45
2021/07/15 06:43:49;;;;;;;3.38;1.88;;;;;;;;;;6301902;22;20038;-36
2021/07/15 06:46:14;;;;;;;54.10;46.47;;;;;;;;;;6302067;22;20003;-36
2021/07/15 06:48:40;;;;;;;7.55;4.78;;;;;;;;;;6302319;22;19995;-37
2021/07/15 06:51:05;;;;;;;12.45;5.70;;;;;;;;;;6302140;22;19999;-45
2021/07/15 06:53:30;;;;;;;14.82;3.65;;;;;;;;;;6302029;22;20030;-45
2021/07/15 06:55:58;;;;;;;8.25;2.83;;;;;;;;;;6302115;22;20000;-44
2021/07/15 06:58:23;;;;;;;15.23;6.68;;;;;;;;;;6302104;22;20439;-47
2021/07/15 07:00:48;;;;;;;4.72;2.03;;;;;;;;;;6302005;22;20027;-41
2021/07/15 07:03:14;;;;;;;6.30;2.58;;;;;;;;;;6302194;22;20011;-41
2021/07/15 07:05:40;;;;;;;5.68;3.10;;;;;;;;;;6298664;22;20333;-41
2021/07/15 07:08:05;;;;;;;3.13;2.00;;;;;;;;;;6297925;22;20000;-40
2021/07/15 07:10:31;;;;;;;3.22;1.60;;;;;;;;;;6299084;22;20015;-41
2021/07/15 07:12:56;;;;;;;5.40;1.90;;;;;;;;;;6298750;22;20005;-43
2021/07/15 07:15:22;;;;;;;14.10;3.10;;;;;;;;;;6298845;22;20019;-41
2021/07/15 07:17:47;;;;;;;2.80;2.22;;;;;;;;;;6298603;22;20328;-40
2021/07/15 07:20:13;;;;;;;7.57;2.72;;;;;;;;;;6297033;22;20072;-41
2021/07/15 07:22:39;;;;;;;5.45;3.58;;;;;;;;;;6298668;22;20003;-42
2021/07/15 07:25:05;;;;;;;10.27;3.17;;;;;;;;;;6298215;22;20030;-41
2021/07/15 07:27:31;;;;;;;10.40;2.45;;;;;;;;;;6297489;22;19995;-40
2021/07/15 07:29:57;;;;;;;4.22;3.00;;;;;;;;;;6298246;22;20003;-40
2021/07/15 07:32:22;;;;;;;5.88;3.83;;;;;;;;;;6297986;22;20049;-41
2021/07/15 07:34:48;;;;;;;2.92;2.00;;;;;;;;;;6298163;22;20451;-40
2021/07/15 07:37:13;;;;;;;5.53;1.58;;;;;;;;;;6298338;22;20401;-41
2021/07/15 07:39:38;;;;;;;3.10;2.08;;;;;;;;;;6298586;22;20910;-41
2021/07/15 07:42:04;;;;;;;4.15;1.83;;;;;;;;;;6297657;22;20003;-42
2021/07/15 07:44:29;;;;;;;2.42;1.73;;;;;;;;;;6298192;22;19995;-43
2021/07/15 07:46:55;;;;;;;2.95;1.55;;;;;;;;;;6297736;22;19999;-42
2021/07/15 07:49:20;;;;;;;3.80;1.73;;;;;;;;;;6298112;22;20476;-40
2021/07/15 07:51:45;;;;;;;6.00;1.85;;;;;;;;;;6297770;22;20635;-42
2021/07/15 07:54:10;;;;;;;1.77;1.20;;;;;;;;;;6298875;22;20022;-41
2021/07/15 07:56:36;;;;;;;2.45;1.75;;;;;;;;;;6298820;22;20025;-40
2021/07/15 07:59:01;;;;;;;3.53;1.42;;;;;;;;;;6297989;22;20066;-41
2021/07/15 08:01:27;;;;;;;8.85;1.50;;;;;;;;;;6297533;22;19999;-40
2021/07/15 08:03:53;;;;;;;6.78;1.67;;;;;;;;;;6298303;22;20010;-41
2021/07/15 08:06:18;;;;;;;1.83;0.80;;;;;;;;;;6297819;22;20007;-41
2021/07/15 08:08:44;;;;;;;52.65;48.15;;;;;;;;;;6297657;22;20106;-41
2021/07/15 08:11:09;;;;;;;6.35;4.43;;;;;;;;;;6297809;22;20005;-40
2021/07/15 08:13:35;;;;;;;5.05;1.50;;;;;;;;;;6297864;22;20514;-42
2021/07/15 08:16:00;;;;;;;4.43;2.05;;;;;;;;;;6298760;22;20485;-44
2021/07/15 08:18:25;;;;;;;1.73;1.08;;;;;;;;;;6298270;22;20673;-44
2021/07/15 08:20:50;;;;;;;4.57;1.05;;;;;;;;;;6298791;22;20812;-41
2021/07/15 08:23:16;;;;;;;5.65;2.08;;;;;;;;;;6297315;22;20031;-40
2021/07/15 08:25:41;;;;;;;10.05;1.90;;;;;;;;;;6297713;22;20078;-44
2021/07/15 08:28:07;;;;;;;2.05;1.00;;;;;;;;;;6298070;22;20085;-42
2021/07/15 08:30:32;;;;;;;5.80;2.67;;;;;;;;;;6297456;22;20491;-41
2021/07/15 08:32:59;;;;;;;1.65;1.25;;;;;;;;;;6298104;22;20592;-40
2021/07/15 08:35:27;;;;;;;7.20;2.63;;;;;;;;;;6300546;22;20012;-39
2021/07/15 08:37:54;;;;;;;1.45;1.20;;;;;;;;;;6300823;22;19995;-40
2021/07/15 08:40:19;;;;;;;7.43;1.83;;;;;;;;;;6302695;22;20002;-43
2021/07/15 08:42:44;;;;;;;1.65;1.50;;;;;;;;;;6303041;22;19995;-39
2021/07/15 08:45:10;;;;;;;1.80;1.05;;;;;;;;;;6303934;22;20009;-41
2021/07/15 08:47:40;;;;;;;18.05;1.30;;;;;;;;;;6303447;22;20002;-40
2021/07/15 08:50:06;;;;;;;5.05;1.25;;;;;;;;;;6303175;22;20003;-40
2021/07/15 08:52:35;;;;;;;2.10;0.80;;;;;;;;;;6302522;22;20438;-42
2021/07/15 08:56:36;;;;;;;2.45;1.02;;;;;;;;;;6303233;22;20074;-44
2021/07/15 08:57:46;;;;;;;2.10;1.55;;;;;;;;;;6302599;22;20075;-40
2021/07/15 09:00:16;;;;;;;2.72;1.17;;;;;;;;;;6301683;22;20022;-40
2021/07/15 09:02:42;;;;;;;2.35;1.02;;;;;;;;;;6301809;22;19995;-40
2021/07/15 09:05:08;;;;;;;1.98;1.02;;;;;;;;;;6302033;22;20007;-42
2021/07/15 09:07:33;;;;;;;2.22;1.42;;;;;;;;;;6302638;22;20098;-45
2021/07/15 09:09:58;;;;;;;2.65;1.48;;;;;;;;;;6303053;22;20014;-46
2021/07/15 09:12:24;;;;;;;1.40;0.88;;;;;;;;;;6302713;22;19999;-45
2021/07/15 09:14:50;;;;;;;4.80;1.02;;;;;;;;;;6302412;22;20364;-45
2021/07/15 09:17:16;;;;;;;2.80;1.17;;;;;;;;;;6302796;22;19999;-43
2021/07/15 09:19:42;;;;;;;2.28;0.95;;;;;;;;;;6302785;22;20663;-42
2021/07/15 09:22:12;;;;;;;2.33;0.70;;;;;;;;;;6303018;22;20003;-41
2021/07/15 09:24:42;;;;;;;12.52;1.13;;;;;;;;;;6302807;22;20025;-43
2021/07/15 09:27:11;;;;;;;5.38;1.73;;;;;;;;;;6303191;22;19995;-43
2021/07/15 09:29:37;;;;;;;4.03;1.02;;;;;;;;;;6302908;22;20026;-43
2021/07/15 09:32:02;;;;;;;5.13;1.08;;;;;;;;;;6302924;22;19995;-43
2021/07/15 09:34:28;;;;;;;2.20;1.00;;;;;;;;;;6303023;22;20462;-41
2021/07/15 09:36:54;;;;;;;0.85;0.65;;;;;;;;;;6303093;22;19999;-42
2021/07/15 09:39:21;;;;;;;2.55;1.27;;;;;;;;;;6302994;22;20471;-40
2021/07/15 09:42:06;;;;;;;9.27;1.98;;;;;;;;;;6302049;22;20002;-41
2021/07/15 09:44:32;;;;;;;2.50;1.20;;;;;;;;;;6301400;22;20003;-41
2021/07/15 09:46:58;;;;;;;2.55;0.82;;;;;;;;;;6302750;22;20500;-41
2021/07/15 09:49:30;;;;;;;3.25;1.52;;;;;;;;;;6302387;22;20000;-40
2021/07/15 09:51:58;;;;;;;1.88;0.88;;;;;;;;;;6302223;22;20007;-42
2021/07/15 09:54:23;;;;;;;1.35;0.45;;;;;;;;;;6302590;22;19995;-41
2021/07/15 09:56:49;;;;;;;2.15;1.05;;;;;;;;;;6301971;22;20332;-42
2021/07/15 09:59:14;;;;;;;1.30;0.63;;;;;;;;;;6303096;22;20091;-43
2021/07/15 10:01:53;;;;;;;1.83;1.00;;;;;;;;;;6302211;22;20072;-43
2021/07/15 10:04:26;;;;;;;2.85;1.52;;;;;;;;;;6302420;22;19995;-43
2021/07/15 10:06:54;;;;;;;3.65;0.95;;;;;;;;;;6302286;22;20152;-41
2021/07/15 10:09:20;;;;;;;2.88;1.38;;;;;;;;;;6302177;22;20438;-40
2021/07/15 10:11:46;;;;;;;4.07;0.90;;;;;;;;;;6302095;22;19999;-40
2021/07/15 10:14:11;;;;;;;3.22;1.33;;;;;;;;;;6302089;22;20015;-41
2021/07/15 10:16:40;;;;;;;4.88;0.82;;;;;;;;;;6302099;22;20003;-41
2021/07/15 10:19:06;;;;;;;0.73;0.63;;;;;;;;;;6302206;22;19998;-42
2021/07/15 10:21:33;;;;;;;6.95;1.52;;;;;;;;;;6301972;22;20424;-41
2021/07/15 10:24:02;;;;;;;3.72;1.27;;;;;;;;;;6302608;22;20006;-42
2021/07/15 10:26:28;;;;;;;6.25;1.02;;;;;;;;;;6302476;22;20379;-43
2021/07/15 10:28:54;;;;;;;4.35;1.02;;;;;;;;;;6302042;22;20416;-40
2021/07/15 10:31:20;;;;;;;3.83;1.52;;;;;;;;;;6301611;22;20080;-41
2021/07/15 10:33:46;;;;;;;1.38;0.45;;;;;;;;;;6301566;22;19995;-41
2021/07/15 10:36:11;;;;;;;2.03;1.05;;;;;;;;;;6302423;22;20066;-44
2021/07/15 10:38:37;;;;;;;5.72;4.55;;;;;;;;;;6301616;22;20014;-44
2021/07/15 10:41:02;;;;;;;2.47;1.25;;;;;;;;;;6301738;22;20011;-43
2021/07/15 10:43:29;;;;;;;1.77;0.75;;;;;;;;;;6301748;22;20068;-40
2021/07/15 10:45:57;;;;;;;0.82;0.57;;;;;;;;;;6301739;22;20030;-41
2021/07/15 10:48:23;;;;;;;2.28;1.08;;;;;;;;;;6302110;22;20128;-40
2021/07/15 10:50:49;;;;;;;5.93;0.88;;;;;;;;;;6301808;22;19995;-40
2021/07/15 10:53:15;;;;;;;8.35;1.88;;;;;;;;;;6301956;22;20018;-43
2021/07/15 10:55:41;;;;;;;2.03;1.08;;;;;;;;;;6301695;22;19992;-40
2021/07/15 10:58:06;;;;;;;14.95;2.13;;;;;;;;;;6301936;22;20001;-41
2021/07/15 11:00:31;;;;;;;2.78;1.25;;;;;;;;;;6301866;22;20078;-41
2021/07/15 11:03:10;;;;;;;3.92;1.02;;;;;;;;;;6301912;22;20025;-44
2021/07/15 11:05:46;;;;;;;6.50;1.80;;;;;;;;;;6301779;22;19999;-41
2021/07/15 11:08:11;;;;;;;2.65;1.00;;;;;;;;;;6301720;22;20458;-42
2021/07/15 11:10:37;;;;;;;3.22;0.77;;;;;;;;;;6301926;22;20003;-42
2021/07/15 11:13:04;;;;;;;0.95;0.75;;;;;;;;;;6302689;22;20057;-41
2021/07/15 11:15:48;;;;;;;3.13;1.35;;;;;;;;;;6301629;22;20047;-41
2021/07/15 11:18:32;;;;;;;4.32;1.75;;;;;;;;;;6302152;22;20002;-41
2021/07/15 11:21:17;;;;;;;2.17;1.40;;;;;;;;;;6302204;22;19999;-43
2021/07/15 11:23:42;;;;;;;2.35;1.23;;;;;;;;;;6302657;22;20015;-40
2021/07/15 11:26:27;;;;;;;4.45;0.90;;;;;;;;;;6302503;22;19995;-41
2021/07/15 11:28:52;;;;;;;1.77;1.02;;;;;;;;;;6301856;22;19999;-41
2021/07/15 11:31:36;;;;;;;1.48;0.88;;;;;;;;;;6302203;22;20031;-40
2021/07/15 11:34:01;;;;;;;2.72;1.02;;;;;;;;;;6301923;22;19992;-40
2021/07/15 11:36:26;;;;;;;5.13;1.58;;;;;;;;;;6302607;22;19992;-40
2021/07/15 11:38:59;;;;;;;2.53;1.08;;;;;;;;;;6302408;22;19999;-43
2021/07/15 11:41:41;;;;;;;2.35;0.82;;;;;;;;;;6301008;22;20462;-40
2021/07/15 11:44:06;;;;;;;1.10;0.93;;;;;;;;;;6302089;22;20022;-42
2021/07/15 11:46:31;;;;;;;0.82;0.55;;;;;;;;;;6301069;22;20379;-43
2021/07/15 11:49:26;;;;;;;2.55;0.85;;;;;;;;;;6302243;22;20070;-41
2021/07/15 11:52:00;;;;;;;1.77;0.82;;;;;;;;;;6298837;22;20006;-41
2021/07/15 11:54:44;;;;;;;2.13;1.30;;;;;;;;;;6301543;22;20507;-40
2021/07/15 11:57:12;;;;;;;3.58;0.95;;;;;;;;;;6301768;22;20021;-41
2021/07/15 11:59:41;;;;;;;5.15;1.33;;;;;;;;;;6301266;22;20026;-41
2021/07/15 12:02:10;;;;;;;5.72;1.92;;;;;;;;;;6301682;22;20032;-41
2021/07/15 12:05:14;;;;;;;4.65;1.27;;;;;;;;;;6302277;22;20309;-41
2021/07/15 12:07:44;;;;;;;7.35;1.23;;;;;;;;;;6206180;23;20009;-40
2021/07/15 12:10:17;;;;;;;1.05;0.68;;;;;;;;;;6206335;23;20323;-41
2021/07/15 12:12:42;;;;;;;2.03;0.98;;;;;;;;;;6258181;22;20003;-40
2021/07/15 12:15:14;;;;;;;1.55;0.60;;;;;;;;;;6301090;22;20022;-43
2021/07/15 12:17:39;;;;;;;5.18;1.00;;;;;;;;;;6301318;22;19995;-42
2021/07/15 12:20:05;;;;;;;16.75;12.82;;;;;;;;;;6301247;22;20014;-40
2021/07/15 12:22:41;;;;;;;2.60;0.95;;;;;;;;;;6301628;22;20006;-41
2021/07/15 12:25:11;;;;;;;1.92;0.90;;;;;;;;;;6301778;22;20114;-42
2021/07/15 12:27:43;;;;;;;3.75;1.23;;;;;;;;;;6299806;22;20151;-43
2021/07/15 12:30:09;;;;;;;7.43;0.77;;;;;;;;;;6301227;22;20082;-44
2021/07/15 12:32:35;;;;;;;4.03;0.52;;;;;;;;;;6301466;22;20026;-45
2021/07/15 12:35:08;;;;;;;1.52;1.00;;;;;;;;;;6301658;22;19991;-40
2021/07/15 12:37:33;;;;;;;2.05;1.30;;;;;;;;;;6301460;22;20021;-42
2021/07/15 12:39:59;;;;;;;2.90;1.25;;;;;;;;;;6301196;22;20015;-44
2021/07/15 12:42:24;;;;;;;2.92;1.17;;;;;;;;;;6301143;22;20003;-45
2021/07/15 12:44:50;;;;;;;1.80;0.90;;;;;;;;;;6301832;22;20052;-45
2021/07/15 12:47:15;;;;;;;4.18;1.30;;;;;;;;;;6301164;22;20462;-39
2021/07/15 12:49:40;;;;;;;3.22;1.27;;;;;;;;;;6301590;22;19995;-41
2021/07/15 12:52:06;;;;;;;1.65;1.13;;;;;;;;;;6301183;22;20049;-41
2021/07/15 12:54:35;;;;;;;6.70;3.50;;;;;;;;;;6301705;22;20045;-41
2021/07/15 12:57:02;;;;;;;7.65;2.55;;;;;;;;;;6301926;22;19995;-43
2021/07/15 12:59:27;;;;;;;6.50;2.35;;;;;;;;;;6301404;22;20007;-40
2021/07/15 13:01:53;;;;;;;2.05;0.77;;;;;;;;;;6301572;22;20007;-40
2021/07/15 13:04:19;;;;;;;3.85;1.33;;;;;;;;;;6301519;22;20066;-42
2021/07/15 13:06:45;;;;;;;8.80;1.00;;;;;;;;;;6301390;22;20364;-41
2021/07/15 13:14:36;;;;;;;6.05;1.20;;;;;;;;;;6301491;22;20027;-43
2021/07/15 13:17:03;;;;;;;5.20;0.95;;;;;;;;;;6301468;22;20022;-39
2021/07/15 13:19:33;;;;;;;1.48;0.93;;;;;;;;;;6301203;22;20006;-40
2021/07/15 13:22:05;;;;;;;1.67;0.60;;;;;;;;;;6301923;22;20026;-40
2021/07/15 13:24:31;;;;;;;4.32;1.20;;;;;;;;;;6301536;22;20034;-40
2021/07/15 13:26:57;;;;;;;4.20;1.85;;;;;;;;;;6303123;22;19999;-41
2021/07/15 13:29:30;;;;;;;3.97;1.35;;;;;;;;;;6303087;22;20074;-42
2021/07/15 13:31:55;;;;;;;9.15;1.67;;;;;;;;;;6302701;22;20432;-41
2021/07/15 13:34:21;;;;;;;3.35;1.45;;;;;;;;;;6303421;22;19992;-43
2021/07/15 13:36:50;;;;;;;9.05;2.40;;;;;;;;;;6302910;22;20477;-44
2021/07/15 13:39:35;;;;;;;3.63;1.20;;;;;;;;;;6302912;22;19995;-42
2021/07/15 13:42:01;;;;;;;2.70;1.55;;;;;;;;;;6302022;22;20002;-43
2021/07/15 13:44:26;;;;;;;5.82;1.80;;;;;;;;;;6302820;22;20003;-41
2021/07/15 13:46:59;;;;;;;5.60;1.45;;;;;;;;;;6303489;22;20010;-41
2021/07/15 13:49:24;;;;;;;5.45;1.02;;;;;;;;;;6302589;22;20007;-41
2021/07/15 13:52:00;;;;;;;3.45;2.00;;;;;;;;;;6302599;22;20006;-42
2021/07/15 13:54:26;;;;;;;3.03;0.73;;;;;;;;;;6303451;22;19995;-41
2021/07/15 13:56:51;;;;;;;3.55;1.25;;;;;;;;;;6303073;22;20026;-41
2021/07/15 13:59:16;;;;;;;3.95;1.77;;;;;;;;;;6302340;22;19995;-40
2021/07/15 14:01:42;;;;;;;0.65;0.55;;;;;;;;;;6300932;22;20006;-42
2021/07/15 14:04:12;;;;;;;7.85;1.58;;;;;;;;;;6302550;22;20474;-42
2021/07/15 14:06:38;;;;;;;8.02;2.08;;;;;;;;;;6303307;22;19999;-41
2021/07/15 14:09:03;;;;;;;3.75;1.27;;;;;;;;;;6303192;22;20037;-42
2021/07/15 14:11:29;;;;;;;2.08;1.35;;;;;;;;;;6302112;22;20499;-40
2021/07/15 14:13:57;;;;;;;5.55;2.05;;;;;;;;;;6302406;22;20471;-41
2021/07/15 14:16:27;;;;;;;2.97;0.68;;;;;;;;;;6302993;22;20003;-42
2021/07/15 14:19:01;;;;;;;1.25;0.90;;;;;;;;;;6302259;22;20002;-42
2021/07/15 14:21:30;;;;;;;1.38;1.00;;;;;;;;;;6302407;22;20082;-42
2021/07/15 14:23:55;;;;;;;4.78;1.08;;;;;;;;;;6302319;22;20015;-41
2021/07/15 14:26:20;;;;;;;2.88;1.23;;;;;;;;;;6303130;22;20010;-43
2021/07/15 14:28:46;;;;;;;8.85;1.27;;;;;;;;;;6302305;22;20325;-42
2021/07/15 14:31:11;;;;;;;3.63;1.00;;;;;;;;;;6302416;22;20007;-41
2021/07/15 14:33:37;;;;;;;2.00;0.93;;;;;;;;;;6302120;22;20006;-41
2021/07/15 14:36:02;;;;;;;3.45;1.52;;;;;;;;;;6302310;22;19987;-45
2021/07/15 14:38:29;;;;;;;2.78;1.10;;;;;;;;;;6301675;22;19995;-41
2021/07/15 14:40:55;;;;;;;3.63;1.15;;;;;;;;;;6302801;22;20011;-41
2021/07/15 14:43:20;;;;;;;5.60;0.88;;;;;;;;;;6302573;22;20003;-42
2021/07/15 14:45:45;;;;;;;7.57;0.90;;;;;;;;;;6301859;22;20074;-42
2021/07/15 14:48:11;;;;;;;1.83;1.20;;;;;;;;;;6302294;22;20051;-43
2021/07/15 14:50:36;;;;;;;5.20;1.33;;;;;;;;;;6301505;22;20332;-44